sensor_id;sensor_type;location;lat;lon;timestamp;pressure;altitude;pressure_sealevel;temperature;humidity
27984;BME280;15317;50.360;8.726;2023-07-02T00:02:52;98806.66;;;15.68;100.00
27984;BME280;15317;50.360;8.726;2023-07-02T00:07:56;98818.03;;;15.65;100.00
27984;BME280;15317;50.360;8.726;2023-07-02T00:13:00;98812.53;;;15.65;100.00
27984;BME280;15317;50.360;8.726;2023-07-02T00:18:03;98798.22;;;15.70;100.00
27984;BME280;15317;50.360;8.726;2023-07-02T00:23:08;98799.06;;;15.70;100.00
27984;BME280;15317;50.360;8.726;2023-07-02T00:28:11;98797.16;;;15.71;100.00
27984;BME280;15317;50.360;8.726;2023-07-02T00:33:15;98785.59;;;15.69;100.00
27984;BME280;15317;50.360;8.726;2023-07-02T00:38:20;98798.22;;;15.70;100.00
27984;BME280;15317;50.360;8.726;2023-07-02T00:43:23;98802.03;;;15.69;100.00
27984;BME280;15317;50.360;8.726;2023-07-02T00:48:26;98799.50;;;15.67;100.00
27984;BME280;15317;50.360;8.726;2023-07-02T00:53:32;98793.59;;;15.70;100.00
27984;BME280;15317;50.360;8.726;2023-07-02T00:58:39;98796.31;;;15.70;100.00
27984;BME280;15317;50.360;8.726;2023-07-02T01:03:53;98818.22;;;15.64;100.00
27984;BME280;15317;50.360;8.726;2023-07-02T01:08:59;98836.06;;;15.47;100.00
27984;BME280;15317;50.360;8.726;2023-07-02T01:14:06;98838.13;;;15.31;100.00
27984;BME280;15317;50.360;8.726;2023-07-02T01:19:12;98834.09;;;15.14;100.00
27984;BME280;15317;50.360;8.726;2023-07-02T01:24:17;98831.69;;;14.98;100.00
27984;BME280;15317;50.360;8.726;2023-07-02T01:29:23;98837.75;;;14.87;100.00
27984;BME280;15317;50.360;8.726;2023-07-02T01:34:26;98843.38;;;14.79;100.00
27984;BME280;15317;50.360;8.726;2023-07-02T01:39:31;98848.84;;;14.79;100.00
27984;BME280;15317;50.360;8.726;2023-07-02T01:44:35;98851.34;;;14.74;100.00
27984;BME280;15317;50.360;8.726;2023-07-02T01:49:39;98857.22;;;14.71;100.00
27984;BME280;15317;50.360;8.726;2023-07-02T01:54:45;98860.94;;;14.63;100.00
27984;BME280;15317;50.360;8.726;2023-07-02T01:59:48;98860.91;;;14.56;100.00
27984;BME280;15317;50.360;8.726;2023-07-02T02:04:51;98861.25;;;14.47;100.00
27984;BME280;15317;50.360;8.726;2023-07-02T02:09:56;98868.09;;;14.36;100.00
27984;BME280;15317;50.360;8.726;2023-07-02T02:15:00;98861.50;;;14.24;100.00
27984;BME280;15317;50.360;8.726;2023-07-02T02:20:04;98858.38;;;14.06;100.00
27984;BME280;15317;50.360;8.726;2023-07-02T02:25:10;98860.44;;;13.97;100.00
27984;BME280;15317;50.360;8.726;2023-07-02T02:30:13;98875.44;;;13.87;100.00
27984;BME280;15317;50.360;8.726;2023-07-02T02:35:17;98873.69;;;13.79;100.00
27984;BME280;15317;50.360;8.726;2023-07-02T02:40:21;98880.78;;;13.73;100.00
27984;BME280;15317;50.360;8.726;2023-07-02T02:45:24;98879.88;;;13.66;100.00
27984;BME280;15317;50.360;8.726;2023-07-02T02:50:27;98892.88;;;13.64;100.00
27984;BME280;15317;50.360;8.726;2023-07-02T02:55:32;98886.16;;;13.67;100.00
27984;BME280;15317;50.360;8.726;2023-07-02T03:00:35;98888.91;;;13.67;100.00
27984;BME280;15317;50.360;8.726;2023-07-02T03:05:40;98896.25;;;13.66;100.00
27984;BME280;15317;50.360;8.726;2023-07-02T03:10:45;98888.34;;;13.71;100.00
27984;BME280;15317;50.360;8.726;2023-07-02T03:15:49;98891.13;;;13.78;100.00
27984;BME280;15317;50.360;8.726;2023-07-02T03:20:52;98900.84;;;13.87;100.00
27984;BME280;15317;50.360;8.726;2023-07-02T03:25:57;98896.13;;;13.96;100.00
27984;BME280;15317;50.360;8.726;2023-07-02T03:31:00;98898.31;;;14.07;100.00
27984;BME280;15317;50.360;8.726;2023-07-02T03:36:03;98890.53;;;14.04;100.00
27984;BME280;15317;50.360;8.726;2023-07-02T03:41:08;98881.56;;;14.10;100.00
27984;BME280;15317;50.360;8.726;2023-07-02T03:46:11;98872.75;;;14.14;100.00
27984;BME280;15317;50.360;8.726;2023-07-02T03:51:15;98877.66;;;14.19;100.00
27984;BME280;15317;50.360;8.726;2023-07-02T03:56:19;98891.53;;;14.24;100.00
27984;BME280;15317;50.360;8.726;2023-07-02T04:01:22;98879.16;;;14.28;100.00
27984;BME280;15317;50.360;8.726;2023-07-02T04:06:26;98899.38;;;14.34;100.00
27984;BME280;15317;50.360;8.726;2023-07-02T04:11:30;98900.31;;;14.41;100.00
27984;BME280;15317;50.360;8.726;2023-07-02T04:16:33;98902.75;;;14.36;100.00
27984;BME280;15317;50.360;8.726;2023-07-02T04:21:37;98893.38;;;14.38;100.00
27984;BME280;15317;50.360;8.726;2023-07-02T04:26:41;98900.13;;;14.42;100.00
27984;BME280;15317;50.360;8.726;2023-07-02T04:32:05;98910.44;;;14.47;100.00
27984;BME280;15317;50.360;8.726;2023-07-02T04:37:09;98911.34;;;14.54;100.00
27984;BME280;15317;50.360;8.726;2023-07-02T04:42:13;98919.47;;;14.47;100.00
27984;BME280;15317;50.360;8.726;2023-07-02T04:47:17;98914.66;;;14.49;100.00
27984;BME280;15317;50.360;8.726;2023-07-02T04:52:20;98906.31;;;14.57;100.00
27984;BME280;15317;50.360;8.726;2023-07-02T04:57:25;98893.09;;;14.61;100.00
27984;BME280;15317;50.360;8.726;2023-07-02T05:02:30;98888.09;;;14.65;100.00
27984;BME280;15317;50.360;8.726;2023-07-02T05:07:33;98892.97;;;14.76;100.00
27984;BME280;15317;50.360;8.726;2023-07-02T05:12:37;98893.91;;;14.89;100.00
27984;BME280;15317;50.360;8.726;2023-07-02T05:17:41;98901.09;;;14.97;100.00
27984;BME280;15317;50.360;8.726;2023-07-02T05:22:44;98909.78;;;15.07;100.00
27984;BME280;15317;50.360;8.726;2023-07-02T05:27:49;98912.16;;;15.23;100.00
27984;BME280;15317;50.360;8.726;2023-07-02T05:32:52;98917.69;;;15.36;100.00
27984;BME280;15317;50.360;8.726;2023-07-02T05:37:55;98933.28;;;15.42;100.00
27984;BME280;15317;50.360;8.726;2023-07-02T05:42:59;98936.69;;;15.45;100.00
27984;BME280;15317;50.360;8.726;2023-07-02T05:48:03;98938.69;;;15.70;100.00
27984;BME280;15317;50.360;8.726;2023-07-02T05:53:06;98934.34;;;15.89;100.00
27984;BME280;15317;50.360;8.726;2023-07-02T05:58:12;98917.81;;;15.69;100.00
27984;BME280;15317;50.360;8.726;2023-07-02T06:03:16;98935.19;;;15.96;100.00
27984;BME280;15317;50.360;8.726;2023-07-02T06:08:21;98950.38;;;16.18;100.00
27984;BME280;15317;50.360;8.726;2023-07-02T06:13:25;98937.13;;;16.15;100.00
27984;BME280;15317;50.360;8.726;2023-07-02T06:18:29;98952.72;;;16.48;100.00
27984;BME280;15317;50.360;8.726;2023-07-02T06:23:39;98955.47;;;16.54;100.00
27984;BME280;15317;50.360;8.726;2023-07-02T06:28:44;98947.69;;;16.84;100.00
27984;BME280;15317;50.360;8.726;2023-07-02T06:33:47;98955.88;;;17.04;100.00
27984;BME280;15317;50.360;8.726;2023-07-02T06:38:50;98953.28;;;17.29;100.00
27984;BME280;15317;50.360;8.726;2023-07-02T06:43:55;98957.91;;;17.35;100.00
27984;BME280;15317;50.360;8.726;2023-07-02T06:48:58;98947.25;;;17.58;99.68
27984;BME280;15317;50.360;8.726;2023-07-02T06:54:01;98959.44;;;17.75;100.00
27984;BME280;15317;50.360;8.726;2023-07-02T06:59:06;98967.91;;;17.81;96.30
27984;BME280;15317;50.360;8.726;2023-07-02T07:04:09;98969.94;;;17.92;93.22
27984;BME280;15317;50.360;8.726;2023-07-02T07:09:13;98969.06;;;17.98;91.91
27984;BME280;15317;50.360;8.726;2023-07-02T07:14:18;98982.16;;;17.96;91.10
27984;BME280;15317;50.360;8.726;2023-07-02T07:19:21;98978.91;;;18.43;93.45
27984;BME280;15317;50.360;8.726;2023-07-02T07:24:24;98977.22;;;18.42;83.79
27984;BME280;15317;50.360;8.726;2023-07-02T07:29:29;98978.34;;;18.66;85.42
27984;BME280;15317;50.360;8.726;2023-07-02T07:34:32;98971.94;;;18.72;83.58
27984;BME280;15317;50.360;8.726;2023-07-02T07:39:36;98974.72;;;18.90;82.89
27984;BME280;15317;50.360;8.726;2023-07-02T07:44:41;98977.16;;;18.56;80.03
27984;BME280;15317;50.360;8.726;2023-07-02T07:49:44;98980.94;;;18.54;81.76
27984;BME280;15317;50.360;8.726;2023-07-02T07:54:48;98977.72;;;18.33;84.20
27984;BME280;15317;50.360;8.726;2023-07-02T07:59:53;98977.16;;;18.80;85.27
27984;BME280;15317;50.360;8.726;2023-07-02T08:04:56;98992.75;;;19.11;77.65
27984;BME280;15317;50.360;8.726;2023-07-02T08:09:59;98997.22;;;19.30;81.80
27984;BME280;15317;50.360;8.726;2023-07-02T08:15:06;98998.72;;;19.08;76.19
27984;BME280;15317;50.360;8.726;2023-07-02T08:20:11;99005.00;;;18.90;76.64
27984;BME280;15317;50.360;8.726;2023-07-02T08:25:14;99001.31;;;19.03;74.69
27984;BME280;15317;50.360;8.726;2023-07-02T08:30:20;99006.38;;;19.24;73.66
27984;BME280;15317;50.360;8.726;2023-07-02T08:35:24;99013.94;;;20.20;69.95
27984;BME280;15317;50.360;8.726;2023-07-02T08:40:27;99023.63;;;21.36;61.46
27984;BME280;15317;50.360;8.726;2023-07-02T08:45:32;99025.59;;;20.94;63.18
27984;BME280;15317;50.360;8.726;2023-07-02T08:50:36;99016.91;;;21.95;64.38
27984;BME280;15317;50.360;8.726;2023-07-02T08:55:41;99025.63;;;23.72;58.55
27984;BME280;15317;50.360;8.726;2023-07-02T09:01:07;99026.41;;;24.87;53.66
27984;BME280;15317;50.360;8.726;2023-07-02T09:06:12;99042.16;;;24.49;49.50
27984;BME280;15317;50.360;8.726;2023-07-02T09:11:16;99043.19;;;22.94;55.91
27984;BME280;15317;50.360;8.726;2023-07-02T09:16:26;99044.81;;;21.82;55.76
27984;BME280;15317;50.360;8.726;2023-07-02T09:21:42;99039.47;;;22.15;57.77
27984;BME280;15317;50.360;8.726;2023-07-02T09:26:46;99043.28;;;21.62;57.88
27984;BME280;15317;50.360;8.726;2023-07-02T09:31:52;99044.50;;;22.18;59.79
27984;BME280;15317;50.360;8.726;2023-07-02T09:36:59;99034.66;;;22.67;53.67
27984;BME280;15317;50.360;8.726;2023-07-02T09:42:05;99036.56;;;22.78;57.44
27984;BME280;15317;50.360;8.726;2023-07-02T09:47:12;99031.38;;;23.49;51.15
27984;BME280;15317;50.360;8.726;2023-07-02T09:52:18;99027.09;;;24.45;53.36
27984;BME280;15317;50.360;8.726;2023-07-02T09:57:22;99020.19;;;24.21;48.29
27984;BME280;15317;50.360;8.726;2023-07-02T10:02:26;99020.72;;;24.45;45.49
27984;BME280;15317;50.360;8.726;2023-07-02T10:07:31;99014.84;;;23.97;46.11
27984;BME280;15317;50.360;8.726;2023-07-02T10:12:45;99027.75;;;23.87;44.90
27984;BME280;15317;50.360;8.726;2023-07-02T10:17:56;99014.91;;;23.59;47.37
27984;BME280;15317;50.360;8.726;2023-07-02T10:23:00;99009.34;;;23.42;45.69
27984;BME280;15317;50.360;8.726;2023-07-02T10:28:13;99017.09;;;23.07;49.74
27984;BME280;15317;50.360;8.726;2023-07-02T10:33:19;99008.38;;;22.53;48.38
27984;BME280;15317;50.360;8.726;2023-07-02T10:38:23;99015.69;;;22.59;51.74
27984;BME280;15317;50.360;8.726;2023-07-02T10:43:27;99009.75;;;22.67;52.12
27984;BME280;15317;50.360;8.726;2023-07-02T10:48:33;99004.28;;;22.84;53.19
27984;BME280;15317;50.360;8.726;2023-07-02T10:53:37;99015.47;;;23.61;51.12
27984;BME280;15317;50.360;8.726;2023-07-02T11:01:26;99022.25;;;22.98;52.06
27984;BME280;15317;50.360;8.726;2023-07-02T11:06:31;99027.59;;;23.21;51.08
27984;BME280;15317;50.360;8.726;2023-07-02T11:11:35;99015.66;;;23.38;49.51
27984;BME280;15317;50.360;8.726;2023-07-02T11:16:39;99003.84;;;22.75;50.69
27984;BME280;15317;50.360;8.726;2023-07-02T11:21:51;99009.59;;;22.57;51.17
27984;BME280;15317;50.360;8.726;2023-07-02T11:26:54;99009.16;;;24.09;48.41
27984;BME280;15317;50.360;8.726;2023-07-02T11:32:09;99008.28;;;25.06;44.32
27984;BME280;15317;50.360;8.726;2023-07-02T11:37:12;99022.59;;;24.17;42.35
27984;BME280;15317;50.360;8.726;2023-07-02T11:42:15;99010.59;;;24.12;44.24
27984;BME280;15317;50.360;8.726;2023-07-02T11:47:19;99002.47;;;24.27;44.12
27984;BME280;15317;50.360;8.726;2023-07-02T11:52:23;99002.81;;;23.87;43.81
27984;BME280;15317;50.360;8.726;2023-07-02T11:57:26;99000.53;;;24.06;44.87
27984;BME280;15317;50.360;8.726;2023-07-02T12:02:30;98997.56;;;23.90;43.16
27984;BME280;15317;50.360;8.726;2023-07-02T12:07:33;99003.06;;;24.07;45.27
27984;BME280;15317;50.360;8.726;2023-07-02T12:12:37;99009.69;;;23.84;44.20
27984;BME280;15317;50.360;8.726;2023-07-02T12:17:41;99013.66;;;23.33;47.38
27984;BME280;15317;50.360;8.726;2023-07-02T12:22:44;99018.38;;;22.99;46.38
27984;BME280;15317;50.360;8.726;2023-07-02T12:27:47;99002.63;;;23.55;46.34
27984;BME280;15317;50.360;8.726;2023-07-02T12:32:52;99010.41;;;24.40;43.85
27984;BME280;15317;50.360;8.726;2023-07-02T12:37:55;99015.00;;;24.83;44.63
27984;BME280;15317;50.360;8.726;2023-07-02T12:42:58;99011.16;;;25.21;41.89
27984;BME280;15317;50.360;8.726;2023-07-02T12:48:03;99015.38;;;24.92;40.72
27984;BME280;15317;50.360;8.726;2023-07-02T12:53:07;99015.81;;;24.30;44.25
27984;BME280;15317;50.360;8.726;2023-07-02T12:58:10;99021.94;;;23.67;41.49
27984;BME280;15317;50.360;8.726;2023-07-02T13:03:17;99020.03;;;23.17;41.96
27984;BME280;15317;50.360;8.726;2023-07-02T13:08:22;99019.22;;;23.16;43.37
27984;BME280;15317;50.360;8.726;2023-07-02T13:13:26;99029.59;;;23.43;45.37
27984;BME280;15317;50.360;8.726;2023-07-02T13:18:32;99017.50;;;23.49;42.74
27984;BME280;15317;50.360;8.726;2023-07-02T13:23:35;99030.13;;;23.23;43.78
27984;BME280;15317;50.360;8.726;2023-07-02T13:28:38;99028.97;;;24.18;43.59
27984;BME280;15317;50.360;8.726;2023-07-02T13:33:43;99032.09;;;25.66;40.65
27984;BME280;15317;50.360;8.726;2023-07-02T13:38:46;99030.78;;;25.41;39.37
27984;BME280;15317;50.360;8.726;2023-07-02T13:43:49;99037.41;;;25.35;38.47
27984;BME280;15317;50.360;8.726;2023-07-02T13:48:54;99047.97;;;25.01;40.29
27984;BME280;15317;50.360;8.726;2023-07-02T13:53:57;99028.06;;;24.56;40.73
27984;BME280;15317;50.360;8.726;2023-07-02T13:59:03;99027.84;;;24.35;41.00
27984;BME280;15317;50.360;8.726;2023-07-02T14:04:07;99042.28;;;24.64;39.32
27984;BME280;15317;50.360;8.726;2023-07-02T14:09:11;99025.31;;;24.12;38.99
27984;BME280;15317;50.360;8.726;2023-07-02T14:14:15;99031.63;;;23.86;41.91
27984;BME280;15317;50.360;8.726;2023-07-02T14:19:18;99038.53;;;24.49;42.01
27984;BME280;15317;50.360;8.726;2023-07-02T14:24:22;99046.31;;;24.78;40.68
27984;BME280;15317;50.360;8.726;2023-07-02T14:29:26;99031.13;;;24.32;40.73
27984;BME280;15317;50.360;8.726;2023-07-02T14:34:29;99042.66;;;24.02;41.83
27984;BME280;15317;50.360;8.726;2023-07-02T14:39:32;99038.00;;;23.86;41.77
27984;BME280;15317;50.360;8.726;2023-07-02T14:44:37;99027.72;;;23.65;41.83
27984;BME280;15317;50.360;8.726;2023-07-02T14:49:40;99042.13;;;23.84;42.14
27984;BME280;15317;50.360;8.726;2023-07-02T14:54:43;99028.81;;;24.24;42.40
27984;BME280;15317;50.360;8.726;2023-07-02T14:59:48;99032.72;;;23.85;41.86
27984;BME280;15317;50.360;8.726;2023-07-02T15:04:52;99033.50;;;23.80;43.32
27984;BME280;15317;50.360;8.726;2023-07-02T15:09:55;99025.66;;;23.22;43.71
27984;BME280;15317;50.360;8.726;2023-07-02T15:15:00;99030.59;;;23.37;44.45
27984;BME280;15317;50.360;8.726;2023-07-02T15:20:04;99035.97;;;23.43;43.90
27984;BME280;15317;50.360;8.726;2023-07-02T15:25:08;99035.22;;;23.48;43.66
27984;BME280;15317;50.360;8.726;2023-07-02T15:30:13;99029.63;;;23.09;43.77
27984;BME280;15317;50.360;8.726;2023-07-02T15:35:16;99022.88;;;23.55;44.47
27984;BME280;15317;50.360;8.726;2023-07-02T15:40:19;99024.25;;;23.96;44.16
27984;BME280;15317;50.360;8.726;2023-07-02T15:45:24;99022.84;;;23.72;42.47
27984;BME280;15317;50.360;8.726;2023-07-02T15:50:28;99026.03;;;23.81;44.23
27984;BME280;15317;50.360;8.726;2023-07-02T15:55:34;99017.16;;;23.84;44.05
27984;BME280;15317;50.360;8.726;2023-07-02T16:00:39;99018.09;;;24.33;41.29
27984;BME280;15317;50.360;8.726;2023-07-02T16:05:43;99021.13;;;24.58;42.11
27984;BME280;15317;50.360;8.726;2023-07-02T16:10:46;99026.38;;;24.82;40.80
27984;BME280;15317;50.360;8.726;2023-07-02T16:15:51;99021.25;;;25.32;40.39
27984;BME280;15317;50.360;8.726;2023-07-02T16:20:56;99022.53;;;24.88;42.22
27984;BME280;15317;50.360;8.726;2023-07-02T16:26:01;99009.44;;;24.08;41.36
27984;BME280;15317;50.360;8.726;2023-07-02T16:31:08;99016.00;;;24.45;41.38
27984;BME280;15317;50.360;8.726;2023-07-02T16:36:12;99014.47;;;24.11;43.41
27984;BME280;15317;50.360;8.726;2023-07-02T16:41:16;99018.22;;;25.34;39.37
27984;BME280;15317;50.360;8.726;2023-07-02T16:46:21;99015.94;;;25.63;40.16
27984;BME280;15317;50.360;8.726;2023-07-02T16:51:24;99017.84;;;24.61;41.13
27984;BME280;15317;50.360;8.726;2023-07-02T16:56:27;99014.44;;;24.54;43.74
27984;BME280;15317;50.360;8.726;2023-07-02T17:01:32;99007.56;;;23.91;45.95
27984;BME280;15317;50.360;8.726;2023-07-02T17:06:35;98996.41;;;24.57;44.81
27984;BME280;15317;50.360;8.726;2023-07-02T17:11:38;99015.41;;;25.29;44.26
27984;BME280;15317;50.360;8.726;2023-07-02T17:16:42;99012.66;;;24.70;44.10
27984;BME280;15317;50.360;8.726;2023-07-02T17:21:47;99004.88;;;24.99;42.94
27984;BME280;15317;50.360;8.726;2023-07-02T17:26:53;99003.31;;;24.54;45.65
27984;BME280;15317;50.360;8.726;2023-07-02T17:31:59;98996.03;;;23.99;46.34
27984;BME280;15317;50.360;8.726;2023-07-02T17:37:06;98995.03;;;23.12;46.38
27984;BME280;15317;50.360;8.726;2023-07-02T17:42:10;98994.41;;;22.31;48.22
27984;BME280;15317;50.360;8.726;2023-07-02T17:47:17;98995.78;;;22.91;50.62
27984;BME280;15317;50.360;8.726;2023-07-02T17:52:21;99001.88;;;23.43;46.63
27984;BME280;15317;50.360;8.726;2023-07-02T17:57:24;98996.22;;;22.99;48.11
27984;BME280;15317;50.360;8.726;2023-07-02T18:02:29;98992.78;;;22.47;50.87
27984;BME280;15317;50.360;8.726;2023-07-02T18:07:32;98991.63;;;22.31;51.08
27984;BME280;15317;50.360;8.726;2023-07-02T18:12:35;98986.47;;;22.06;49.49
27984;BME280;15317;50.360;8.726;2023-07-02T18:17:40;98996.00;;;21.99;52.35
27984;BME280;15317;50.360;8.726;2023-07-02T18:22:43;98994.56;;;21.85;51.72
27984;BME280;15317;50.360;8.726;2023-07-02T18:28:01;98980.63;;;21.80;51.00
27984;BME280;15317;50.360;8.726;2023-07-02T18:33:06;98990.19;;;21.60;52.17
27984;BME280;15317;50.360;8.726;2023-07-02T18:38:09;98989.97;;;21.39;52.05
27984;BME280;15317;50.360;8.726;2023-07-02T18:43:13;98999.56;;;21.13;55.23
27984;BME280;15317;50.360;8.726;2023-07-02T18:48:17;98986.94;;;20.94;56.75
27984;BME280;15317;50.360;8.726;2023-07-02T18:53:23;98989.66;;;20.82;59.46
27984;BME280;15317;50.360;8.726;2023-07-02T18:58:27;98994.34;;;20.81;61.97
27984;BME280;15317;50.360;8.726;2023-07-02T19:03:32;98990.28;;;20.72;60.95
27984;BME280;15317;50.360;8.726;2023-07-02T19:08:35;98990.00;;;20.62;61.24
27984;BME280;15317;50.360;8.726;2023-07-02T19:13:39;98986.34;;;20.38;64.17
27984;BME280;15317;50.360;8.726;2023-07-02T19:18:43;98986.19;;;20.03;65.59
27984;BME280;15317;50.360;8.726;2023-07-02T19:23:47;98982.56;;;19.55;71.01
27984;BME280;15317;50.360;8.726;2023-07-02T19:28:51;98987.78;;;19.20;72.06
27984;BME280;15317;50.360;8.726;2023-07-02T19:33:55;98986.69;;;18.78;77.89
27984;BME280;15317;50.360;8.726;2023-07-02T19:38:59;98993.72;;;18.42;79.57
27984;BME280;15317;50.360;8.726;2023-07-02T19:44:02;98990.88;;;18.24;81.12
27984;BME280;15317;50.360;8.726;2023-07-02T19:49:07;98995.38;;;18.19;80.17
27984;BME280;15317;50.360;8.726;2023-07-02T19:54:11;99006.00;;;18.02;80.19
27984;BME280;15317;50.360;8.726;2023-07-02T19:59:15;99000.38;;;17.90;78.64
27984;BME280;15317;50.360;8.726;2023-07-02T20:04:20;99005.72;;;17.79;81.48
27984;BME280;15317;50.360;8.726;2023-07-02T20:09:24;99010.63;;;17.63;82.20
27984;BME280;15317;50.360;8.726;2023-07-02T20:14:27;99011.94;;;17.34;85.31
27984;BME280;15317;50.360;8.726;2023-07-02T20:19:33;99013.69;;;17.09;85.27
27984;BME280;15317;50.360;8.726;2023-07-02T20:24:36;99006.72;;;17.00;83.35
27984;BME280;15317;50.360;8.726;2023-07-02T20:29:40;99007.78;;;16.79;86.08
27984;BME280;15317;50.360;8.726;2023-07-02T20:34:44;99015.81;;;16.61;87.26
27984;BME280;15317;50.360;8.726;2023-07-02T20:39:50;99013.25;;;16.46;87.14
27984;BME280;15317;50.360;8.726;2023-07-02T20:44:54;99012.81;;;16.43;84.05
27984;BME280;15317;50.360;8.726;2023-07-02T20:50:01;99010.69;;;16.45;80.64
27984;BME280;15317;50.360;8.726;2023-07-02T20:55:05;99008.59;;;16.47;82.12
27984;BME280;15317;50.360;8.726;2023-07-02T21:00:09;99015.81;;;16.74;74.77
27984;BME280;15317;50.360;8.726;2023-07-02T21:05:15;99018.34;;;16.95;73.01
27984;BME280;15317;50.360;8.726;2023-07-02T21:10:20;99026.38;;;17.04;73.74
27984;BME280;15317;50.360;8.726;2023-07-02T21:15:23;99023.16;;;17.13;70.96
27984;BME280;15317;50.360;8.726;2023-07-02T21:20:28;99031.63;;;17.18;69.52
27984;BME280;15317;50.360;8.726;2023-07-02T21:25:31;99034.34;;;17.38;66.70
27984;BME280;15317;50.360;8.726;2023-07-02T21:30:35;99040.59;;;17.71;65.03
27984;BME280;15317;50.360;8.726;2023-07-02T21:35:39;99040.56;;;17.85;64.43
27984;BME280;15317;50.360;8.726;2023-07-02T21:40:43;99045.38;;;17.96;63.61
27984;BME280;15317;50.360;8.726;2023-07-02T21:45:52;99038.38;;;18.00;63.29
27984;BME280;15317;50.360;8.726;2023-07-02T21:50:56;99044.47;;;18.02;61.90
27984;BME280;15317;50.360;8.726;2023-07-02T21:55:59;99044.69;;;18.07;61.07
27984;BME280;15317;50.360;8.726;2023-07-02T22:01:03;99048.66;;;18.17;59.71
27984;BME280;15317;50.360;8.726;2023-07-02T22:06:09;99050.13;;;18.20;59.94
27984;BME280;15317;50.360;8.726;2023-07-02T22:11:12;99055.59;;;18.27;58.65
27984;BME280;15317;50.360;8.726;2023-07-02T22:16:24;99045.81;;;18.31;58.64
27984;BME280;15317;50.360;8.726;2023-07-02T22:21:29;99048.34;;;18.32;58.12
27984;BME280;15317;50.360;8.726;2023-07-02T22:26:32;99046.06;;;18.23;58.44
27984;BME280;15317;50.360;8.726;2023-07-02T22:31:35;99049.31;;;18.13;59.16
27984;BME280;15317;50.360;8.726;2023-07-02T22:36:40;99046.41;;;18.01;58.91
27984;BME280;15317;50.360;8.726;2023-07-02T22:41:43;99038.63;;;17.92;60.52
27984;BME280;15317;50.360;8.726;2023-07-02T22:46:46;99037.38;;;17.88;59.50
27984;BME280;15317;50.360;8.726;2023-07-02T22:51:50;99039.34;;;17.74;60.07
27984;BME280;15317;50.360;8.726;2023-07-02T22:56:54;99038.09;;;17.63;60.66
27984;BME280;15317;50.360;8.726;2023-07-02T23:01:57;99026.06;;;17.51;61.24
27984;BME280;15317;50.360;8.726;2023-07-02T23:07:02;99034.34;;;17.38;62.23
27984;BME280;15317;50.360;8.726;2023-07-02T23:12:06;99025.91;;;17.26;62.11
27984;BME280;15317;50.360;8.726;2023-07-02T23:17:09;99023.38;;;17.25;61.60
27984;BME280;15317;50.360;8.726;2023-07-02T23:22:16;99020.03;;;17.10;63.02
27984;BME280;15317;50.360;8.726;2023-07-02T23:27:20;99020.88;;;17.04;62.89
27984;BME280;15317;50.360;8.726;2023-07-02T23:32:24;99022.16;;;16.94;63.90
27984;BME280;15317;50.360;8.726;2023-07-02T23:37:30;99018.75;;;16.79;64.32
27984;BME280;15317;50.360;8.726;2023-07-02T23:42:34;99012.44;;;16.66;65.30
27984;BME280;15317;50.360;8.726;2023-07-02T23:47:37;99014.53;;;16.57;65.13
27984;BME280;15317;50.360;8.726;2023-07-02T23:52:43;99011.97;;;16.42;66.84
27984;BME280;15317;50.360;8.726;2023-07-02T23:57:47;99001.00;;;16.23;69.67
